sensor_id;sensor_type;location;lat;lon;timestamp;P1;durP1;ratioP1;P2;durP2;ratioP2
26750;SDS011;14345;48.272;25.926;2023-10-19T00:01:07;31.50;;;18.92;;
26750;SDS011;14345;48.272;25.926;2023-10-19T00:03:36;30.50;;;18.15;;
26750;SDS011;14345;48.272;25.926;2023-10-19T00:06:03;30.80;;;17.80;;
26750;SDS011;14345;48.272;25.926;2023-10-19T00:08:30;27.85;;;18.15;;
26750;SDS011;14345;48.272;25.926;2023-10-19T00:11:08;28.63;;;16.83;;
26750;SDS011;14345;48.272;25.926;2023-10-19T00:13:35;27.15;;;16.25;;
26750;SDS011;14345;48.272;25.926;2023-10-19T00:16:03;28.20;;;17.38;;
26750;SDS011;14345;48.272;25.926;2023-10-19T00:18:49;26.75;;;17.33;;
26750;SDS011;14345;48.272;25.926;2023-10-19T00:21:17;30.08;;;18.38;;
26750;SDS011;14345;48.272;25.926;2023-10-19T00:23:50;34.25;;;18.60;;
26750;SDS011;14345;48.272;25.926;2023-10-19T00:26:17;30.80;;;17.38;;
26750;SDS011;14345;48.272;25.926;2023-10-19T00:28:45;32.17;;;19.17;;
26750;SDS011;14345;48.272;25.926;2023-10-19T00:31:13;29.80;;;17.52;;
26750;SDS011;14345;48.272;25.926;2023-10-19T00:33:39;31.20;;;17.40;;
26750;SDS011;14345;48.272;25.926;2023-10-19T00:36:09;29.92;;;17.75;;
26750;SDS011;14345;48.272;25.926;2023-10-19T00:38:38;28.83;;;17.73;;
26750;SDS011;14345;48.272;25.926;2023-10-19T00:41:06;28.83;;;17.52;;
26750;SDS011;14345;48.272;25.926;2023-10-19T00:43:45;27.15;;;16.73;;
26750;SDS011;14345;48.272;25.926;2023-10-19T00:46:14;27.60;;;17.17;;
26750;SDS011;14345;48.272;25.926;2023-10-19T00:48:45;27.20;;;16.65;;
26750;SDS011;14345;48.272;25.926;2023-10-19T00:51:12;28.65;;;17.15;;
26750;SDS011;14345;48.272;25.926;2023-10-19T00:53:54;28.17;;;16.70;;
26750;SDS011;14345;48.272;25.926;2023-10-19T00:56:21;29.00;;;16.80;;
26750;SDS011;14345;48.272;25.926;2023-10-19T00:58:49;25.95;;;16.42;;
26750;SDS011;14345;48.272;25.926;2023-10-19T01:01:19;28.88;;;16.58;;
26750;SDS011;14345;48.272;25.926;2023-10-19T01:03:48;25.90;;;16.52;;
26750;SDS011;14345;48.272;25.926;2023-10-19T01:06:17;27.02;;;16.42;;
26750;SDS011;14345;48.272;25.926;2023-10-19T01:08:45;27.35;;;15.50;;
26750;SDS011;14345;48.272;25.926;2023-10-19T01:11:11;25.33;;;15.43;;
26750;SDS011;14345;48.272;25.926;2023-10-19T01:13:40;25.45;;;15.30;;
26750;SDS011;14345;48.272;25.926;2023-10-19T01:16:12;24.70;;;14.93;;
26750;SDS011;14345;48.272;25.926;2023-10-19T01:18:45;24.02;;;14.75;;
26750;SDS011;14345;48.272;25.926;2023-10-19T01:21:11;24.45;;;15.57;;
26750;SDS011;14345;48.272;25.926;2023-10-19T01:23:37;23.85;;;15.90;;
26750;SDS011;14345;48.272;25.926;2023-10-19T01:26:04;28.48;;;16.30;;
26750;SDS011;14345;48.272;25.926;2023-10-19T01:28:34;24.92;;;15.15;;
26750;SDS011;14345;48.272;25.926;2023-10-19T01:31:11;27.02;;;15.32;;
26750;SDS011;14345;48.272;25.926;2023-10-19T01:33:58;23.92;;;15.43;;
26750;SDS011;14345;48.272;25.926;2023-10-19T01:36:26;25.52;;;16.20;;
26750;SDS011;14345;48.272;25.926;2023-10-19T01:38:55;28.85;;;16.40;;
26750;SDS011;14345;48.272;25.926;2023-10-19T01:41:26;23.60;;;13.30;;
26750;SDS011;14345;48.272;25.926;2023-10-19T01:43:52;22.83;;;13.13;;
26750;SDS011;14345;48.272;25.926;2023-10-19T01:46:19;20.98;;;12.50;;
26750;SDS011;14345;48.272;25.926;2023-10-19T01:48:49;29.83;;;13.93;;
26750;SDS011;14345;48.272;25.926;2023-10-19T01:51:19;21.95;;;13.20;;
26750;SDS011;14345;48.272;25.926;2023-10-19T01:53:46;19.95;;;12.57;;
26750;SDS011;14345;48.272;25.926;2023-10-19T01:56:13;21.15;;;13.52;;
26750;SDS011;14345;48.272;25.926;2023-10-19T01:58:40;23.08;;;13.20;;
26750;SDS011;14345;48.272;25.926;2023-10-19T02:01:06;21.27;;;14.13;;
26750;SDS011;14345;48.272;25.926;2023-10-19T02:03:41;24.55;;;15.05;;
26750;SDS011;14345;48.272;25.926;2023-10-19T02:06:09;24.25;;;14.85;;
26750;SDS011;14345;48.272;25.926;2023-10-19T02:08:41;23.27;;;13.75;;
26750;SDS011;14345;48.272;25.926;2023-10-19T02:11:08;22.45;;;13.57;;
26750;SDS011;14345;48.272;25.926;2023-10-19T02:13:44;20.95;;;13.57;;
26750;SDS011;14345;48.272;25.926;2023-10-19T02:16:14;19.77;;;12.80;;
26750;SDS011;14345;48.272;25.926;2023-10-19T02:18:50;20.70;;;12.30;;
26750;SDS011;14345;48.272;25.926;2023-10-19T02:21:16;23.15;;;12.40;;
26750;SDS011;14345;48.272;25.926;2023-10-19T02:23:52;19.73;;;12.48;;
26750;SDS011;14345;48.272;25.926;2023-10-19T02:26:19;23.02;;;13.02;;
26750;SDS011;14345;48.272;25.926;2023-10-19T02:28:47;21.00;;;12.77;;
26750;SDS011;14345;48.272;25.926;2023-10-19T02:31:16;21.05;;;12.30;;
26750;SDS011;14345;48.272;25.926;2023-10-19T02:33:49;21.38;;;12.35;;
26750;SDS011;14345;48.272;25.926;2023-10-19T02:36:25;21.17;;;11.98;;
26750;SDS011;14345;48.272;25.926;2023-10-19T02:38:58;20.85;;;13.23;;
26750;SDS011;14345;48.272;25.926;2023-10-19T02:41:25;21.70;;;12.68;;
26750;SDS011;14345;48.272;25.926;2023-10-19T02:43:55;20.98;;;12.60;;
26750;SDS011;14345;48.272;25.926;2023-10-19T02:46:34;21.30;;;12.65;;
26750;SDS011;14345;48.272;25.926;2023-10-19T02:49:03;22.73;;;13.95;;
26750;SDS011;14345;48.272;25.926;2023-10-19T02:51:34;22.77;;;13.63;;
26750;SDS011;14345;48.272;25.926;2023-10-19T02:54:01;21.80;;;12.93;;
26750;SDS011;14345;48.272;25.926;2023-10-19T02:56:27;22.13;;;12.93;;
26750;SDS011;14345;48.272;25.926;2023-10-19T02:58:57;19.02;;;11.98;;
26750;SDS011;14345;48.272;25.926;2023-10-19T03:01:27;19.73;;;12.45;;
26750;SDS011;14345;48.272;25.926;2023-10-19T03:03:56;21.83;;;13.07;;
26750;SDS011;14345;48.272;25.926;2023-10-19T03:06:25;19.25;;;12.55;;
26750;SDS011;14345;48.272;25.926;2023-10-19T03:08:51;21.02;;;13.15;;
26750;SDS011;14345;48.272;25.926;2023-10-19T03:11:25;21.65;;;13.52;;
26750;SDS011;14345;48.272;25.926;2023-10-19T03:13:52;20.45;;;13.18;;
26750;SDS011;14345;48.272;25.926;2023-10-19T03:16:18;20.98;;;13.52;;
26750;SDS011;14345;48.272;25.926;2023-10-19T03:18:45;23.00;;;13.98;;
26750;SDS011;14345;48.272;25.926;2023-10-19T03:21:11;21.30;;;13.38;;
26750;SDS011;14345;48.272;25.926;2023-10-19T03:23:37;20.90;;;12.80;;
26750;SDS011;14345;48.272;25.926;2023-10-19T03:26:03;28.52;;;15.60;;
26750;SDS011;14345;48.272;25.926;2023-10-19T03:28:49;29.73;;;16.80;;
26750;SDS011;14345;48.272;25.926;2023-10-19T03:31:20;26.75;;;15.75;;
26750;SDS011;14345;48.272;25.926;2023-10-19T03:33:48;29.60;;;17.30;;
26750;SDS011;14345;48.272;25.926;2023-10-19T03:36:18;26.77;;;16.45;;
26750;SDS011;14345;48.272;25.926;2023-10-19T03:38:44;30.50;;;16.45;;
26750;SDS011;14345;48.272;25.926;2023-10-19T03:41:11;27.15;;;14.68;;
26750;SDS011;14345;48.272;25.926;2023-10-19T03:43:37;26.63;;;15.60;;
26750;SDS011;14345;48.272;25.926;2023-10-19T03:46:06;26.60;;;15.25;;
26750;SDS011;14345;48.272;25.926;2023-10-19T03:48:47;26.60;;;15.65;;
26750;SDS011;14345;48.272;25.926;2023-10-19T03:51:13;28.90;;;16.33;;
26750;SDS011;14345;48.272;25.926;2023-10-19T03:53:40;29.73;;;17.33;;
26750;SDS011;14345;48.272;25.926;2023-10-19T03:56:13;23.40;;;14.05;;
26750;SDS011;14345;48.272;25.926;2023-10-19T03:58:42;21.27;;;13.35;;
26750;SDS011;14345;48.272;25.926;2023-10-19T04:01:12;24.00;;;13.85;;
26750;SDS011;14345;48.272;25.926;2023-10-19T04:03:41;23.77;;;13.63;;
26750;SDS011;14345;48.272;25.926;2023-10-19T04:06:08;24.20;;;14.68;;
26750;SDS011;14345;48.272;25.926;2023-10-19T04:08:39;25.38;;;15.43;;
26750;SDS011;14345;48.272;25.926;2023-10-19T04:11:05;22.85;;;14.30;;
26750;SDS011;14345;48.272;25.926;2023-10-19T04:13:46;23.70;;;14.38;;
26750;SDS011;14345;48.272;25.926;2023-10-19T04:16:12;21.25;;;13.75;;
26750;SDS011;14345;48.272;25.926;2023-10-19T04:18:39;21.13;;;12.98;;
26750;SDS011;14345;48.272;25.926;2023-10-19T04:21:09;22.83;;;13.40;;
26750;SDS011;14345;48.272;25.926;2023-10-19T04:23:35;23.65;;;13.38;;
26750;SDS011;14345;48.272;25.926;2023-10-19T04:26:01;20.80;;;12.88;;
26750;SDS011;14345;48.272;25.926;2023-10-19T04:31:20;21.02;;;12.23;;
26750;SDS011;14345;48.272;25.926;2023-10-19T04:33:48;27.00;;;14.02;;
26750;SDS011;14345;48.272;25.926;2023-10-19T04:36:14;22.80;;;14.13;;
26750;SDS011;14345;48.272;25.926;2023-10-19T04:38:41;24.05;;;13.43;;
26750;SDS011;14345;48.272;25.926;2023-10-19T04:41:10;24.52;;;14.20;;
26750;SDS011;14345;48.272;25.926;2023-10-19T04:43:36;25.38;;;13.82;;
26750;SDS011;14345;48.272;25.926;2023-10-19T04:46:09;23.40;;;14.07;;
26750;SDS011;14345;48.272;25.926;2023-10-19T04:48:39;27.60;;;16.85;;
26750;SDS011;14345;48.272;25.926;2023-10-19T04:51:05;25.92;;;16.83;;
26750;SDS011;14345;48.272;25.926;2023-10-19T04:53:32;24.83;;;15.75;;
26750;SDS011;14345;48.272;25.926;2023-10-19T04:55:58;22.77;;;15.43;;
26750;SDS011;14345;48.272;25.926;2023-10-19T04:58:26;29.80;;;14.82;;
26750;SDS011;14345;48.272;25.926;2023-10-19T05:00:53;20.35;;;14.13;;
26750;SDS011;14345;48.272;25.926;2023-10-19T05:03:19;27.23;;;13.73;;
26750;SDS011;14345;48.272;25.926;2023-10-19T05:05:45;24.23;;;14.05;;
26750;SDS011;14345;48.272;25.926;2023-10-19T05:08:11;26.05;;;14.93;;
26750;SDS011;14345;48.272;25.926;2023-10-19T05:10:37;24.80;;;14.00;;
26750;SDS011;14345;48.272;25.926;2023-10-19T05:13:03;27.23;;;14.30;;
26750;SDS011;14345;48.272;25.926;2023-10-19T05:15:30;28.45;;;15.13;;
26750;SDS011;14345;48.272;25.926;2023-10-19T05:17:56;23.50;;;14.35;;
26750;SDS011;14345;48.272;25.926;2023-10-19T05:20:22;27.40;;;15.43;;
26750;SDS011;14345;48.272;25.926;2023-10-19T05:22:48;25.55;;;15.10;;
26750;SDS011;14345;48.272;25.926;2023-10-19T05:25:15;26.92;;;16.08;;
26750;SDS011;14345;48.272;25.926;2023-10-19T05:27:41;28.40;;;17.27;;
26750;SDS011;14345;48.272;25.926;2023-10-19T05:30:07;26.38;;;15.98;;
26750;SDS011;14345;48.272;25.926;2023-10-19T05:32:35;32.22;;;16.65;;
26750;SDS011;14345;48.272;25.926;2023-10-19T05:35:01;28.67;;;16.73;;
26750;SDS011;14345;48.272;25.926;2023-10-19T05:37:29;31.90;;;16.98;;
26750;SDS011;14345;48.272;25.926;2023-10-19T05:39:55;32.17;;;17.10;;
26750;SDS011;14345;48.272;25.926;2023-10-19T05:42:22;33.35;;;17.10;;
26750;SDS011;14345;48.272;25.926;2023-10-19T05:44:48;28.00;;;17.88;;
26750;SDS011;14345;48.272;25.926;2023-10-19T05:47:14;34.28;;;17.35;;
26750;SDS011;14345;48.272;25.926;2023-10-19T05:49:40;27.88;;;16.85;;
26750;SDS011;14345;48.272;25.926;2023-10-19T05:52:07;37.28;;;22.50;;
26750;SDS011;14345;48.272;25.926;2023-10-19T05:54:33;43.03;;;26.58;;
26750;SDS011;14345;48.272;25.926;2023-10-19T05:56:59;42.15;;;25.83;;
26750;SDS011;14345;48.272;25.926;2023-10-19T05:59:25;38.97;;;22.80;;
26750;SDS011;14345;48.272;25.926;2023-10-19T06:01:52;31.02;;;20.58;;
26750;SDS011;14345;48.272;25.926;2023-10-19T06:04:18;31.63;;;20.42;;
26750;SDS011;14345;48.272;25.926;2023-10-19T06:06:45;30.70;;;20.13;;
26750;SDS011;14345;48.272;25.926;2023-10-19T06:09:12;35.42;;;19.35;;
26750;SDS011;14345;48.272;25.926;2023-10-19T06:11:40;37.13;;;19.58;;
26750;SDS011;14345;48.272;25.926;2023-10-19T06:14:08;37.35;;;21.85;;
26750;SDS011;14345;48.272;25.926;2023-10-19T06:16:34;34.30;;;20.33;;
26750;SDS011;14345;48.272;25.926;2023-10-19T06:19:00;40.50;;;21.00;;
26750;SDS011;14345;48.272;25.926;2023-10-19T06:21:27;35.72;;;21.27;;
26750;SDS011;14345;48.272;25.926;2023-10-19T06:23:55;38.17;;;23.10;;
26750;SDS011;14345;48.272;25.926;2023-10-19T06:26:21;39.95;;;23.83;;
26750;SDS011;14345;48.272;25.926;2023-10-19T06:28:47;36.55;;;21.67;;
26750;SDS011;14345;48.272;25.926;2023-10-19T06:31:15;35.67;;;19.38;;
26750;SDS011;14345;48.272;25.926;2023-10-19T06:33:42;31.38;;;20.42;;
26750;SDS011;14345;48.272;25.926;2023-10-19T06:36:08;36.70;;;20.77;;
26750;SDS011;14345;48.272;25.926;2023-10-19T06:38:34;32.70;;;20.98;;
26750;SDS011;14345;48.272;25.926;2023-10-19T06:41:00;33.33;;;20.35;;
26750;SDS011;14345;48.272;25.926;2023-10-19T06:43:28;39.53;;;21.85;;
26750;SDS011;14345;48.272;25.926;2023-10-19T06:45:55;39.08;;;21.02;;
26750;SDS011;14345;48.272;25.926;2023-10-19T06:48:21;35.28;;;21.52;;
26750;SDS011;14345;48.272;25.926;2023-10-19T06:50:47;39.67;;;22.10;;
26750;SDS011;14345;48.272;25.926;2023-10-19T06:53:13;32.17;;;20.90;;
26750;SDS011;14345;48.272;25.926;2023-10-19T06:55:39;37.33;;;20.13;;
26750;SDS011;14345;48.272;25.926;2023-10-19T06:58:05;34.70;;;19.60;;
26750;SDS011;14345;48.272;25.926;2023-10-19T07:00:34;33.25;;;19.35;;
26750;SDS011;14345;48.272;25.926;2023-10-19T07:03:07;29.17;;;19.67;;
26750;SDS011;14345;48.272;25.926;2023-10-19T07:05:33;31.75;;;19.23;;
26750;SDS011;14345;48.272;25.926;2023-10-19T07:07:59;33.42;;;19.88;;
26750;SDS011;14345;48.272;25.926;2023-10-19T07:10:27;31.15;;;19.38;;
26750;SDS011;14345;48.272;25.926;2023-10-19T07:12:54;28.45;;;19.27;;
26750;SDS011;14345;48.272;25.926;2023-10-19T07:15:20;32.83;;;20.63;;
26750;SDS011;14345;48.272;25.926;2023-10-19T07:17:50;37.63;;;21.95;;
26750;SDS011;14345;48.272;25.926;2023-10-19T07:20:17;37.30;;;21.30;;
26750;SDS011;14345;48.272;25.926;2023-10-19T07:23:03;35.65;;;20.73;;
26750;SDS011;14345;48.272;25.926;2023-10-19T07:25:43;32.22;;;19.88;;
26750;SDS011;14345;48.272;25.926;2023-10-19T07:28:10;34.17;;;20.60;;
26750;SDS011;14345;48.272;25.926;2023-10-19T07:30:37;34.53;;;20.52;;
26750;SDS011;14345;48.272;25.926;2023-10-19T07:33:03;35.17;;;20.65;;
26750;SDS011;14345;48.272;25.926;2023-10-19T07:35:33;33.22;;;20.00;;
26750;SDS011;14345;48.272;25.926;2023-10-19T07:37:59;26.92;;;17.98;;
26750;SDS011;14345;48.272;25.926;2023-10-19T07:40:26;36.80;;;18.63;;
26750;SDS011;14345;48.272;25.926;2023-10-19T07:42:52;30.10;;;17.80;;
26750;SDS011;14345;48.272;25.926;2023-10-19T07:45:20;24.80;;;17.33;;
26750;SDS011;14345;48.272;25.926;2023-10-19T07:47:46;27.70;;;18.67;;
26750;SDS011;14345;48.272;25.926;2023-10-19T07:50:12;26.83;;;18.08;;
26750;SDS011;14345;48.272;25.926;2023-10-19T07:52:50;29.30;;;18.23;;
26750;SDS011;14345;48.272;25.926;2023-10-19T07:55:17;32.63;;;18.38;;
26750;SDS011;14345;48.272;25.926;2023-10-19T07:57:43;31.42;;;18.45;;
26750;SDS011;14345;48.272;25.926;2023-10-19T08:00:10;27.73;;;18.00;;
26750;SDS011;14345;48.272;25.926;2023-10-19T08:02:37;25.67;;;16.20;;
26750;SDS011;14345;48.272;25.926;2023-10-19T08:05:05;24.10;;;16.65;;
26750;SDS011;14345;48.272;25.926;2023-10-19T08:07:32;23.40;;;16.02;;
26750;SDS011;14345;48.272;25.926;2023-10-19T08:09:59;30.25;;;15.65;;
26750;SDS011;14345;48.272;25.926;2023-10-19T08:12:25;22.02;;;15.23;;
26750;SDS011;14345;48.272;25.926;2023-10-19T08:14:54;24.13;;;14.73;;
26750;SDS011;14345;48.272;25.926;2023-10-19T08:17:21;18.45;;;13.65;;
26750;SDS011;14345;48.272;25.926;2023-10-19T08:19:48;23.55;;;14.45;;
26750;SDS011;14345;48.272;25.926;2023-10-19T08:22:15;21.63;;;13.73;;
26750;SDS011;14345;48.272;25.926;2023-10-19T08:24:41;25.88;;;15.73;;
26750;SDS011;14345;48.272;25.926;2023-10-19T08:27:08;25.55;;;15.63;;
26750;SDS011;14345;48.272;25.926;2023-10-19T08:29:38;24.10;;;15.25;;
26750;SDS011;14345;48.272;25.926;2023-10-19T08:32:04;25.48;;;16.10;;
26750;SDS011;14345;48.272;25.926;2023-10-19T08:34:34;22.92;;;15.10;;
26750;SDS011;14345;48.272;25.926;2023-10-19T08:37:01;21.20;;;13.60;;
26750;SDS011;14345;48.272;25.926;2023-10-19T08:39:27;22.55;;;14.65;;
26750;SDS011;14345;48.272;25.926;2023-10-19T08:42:00;21.40;;;13.87;;
26750;SDS011;14345;48.272;25.926;2023-10-19T08:44:27;19.90;;;13.52;;
26750;SDS011;14345;48.272;25.926;2023-10-19T08:46:53;21.92;;;12.82;;
26750;SDS011;14345;48.272;25.926;2023-10-19T08:49:19;19.10;;;12.43;;
26750;SDS011;14345;48.272;25.926;2023-10-19T08:51:47;19.23;;;11.88;;
26750;SDS011;14345;48.272;25.926;2023-10-19T08:54:13;17.27;;;11.50;;
26750;SDS011;14345;48.272;25.926;2023-10-19T08:56:40;16.35;;;11.23;;
26750;SDS011;14345;48.272;25.926;2023-10-19T08:59:09;15.45;;;10.35;;
26750;SDS011;14345;48.272;25.926;2023-10-19T09:01:36;18.40;;;11.50;;
26750;SDS011;14345;48.272;25.926;2023-10-19T09:04:02;14.65;;;10.75;;
26750;SDS011;14345;48.272;25.926;2023-10-19T09:06:30;15.50;;;10.23;;
26750;SDS011;14345;48.272;25.926;2023-10-19T09:08:57;17.15;;;10.80;;
26750;SDS011;14345;48.272;25.926;2023-10-19T09:11:23;18.13;;;11.95;;
26750;SDS011;14345;48.272;25.926;2023-10-19T09:13:50;16.15;;;10.25;;
26750;SDS011;14345;48.272;25.926;2023-10-19T09:16:17;20.35;;;11.02;;
26750;SDS011;14345;48.272;25.926;2023-10-19T09:18:44;21.73;;;12.20;;
26750;SDS011;14345;48.272;25.926;2023-10-19T09:21:10;17.77;;;12.65;;
26750;SDS011;14345;48.272;25.926;2023-10-19T09:23:37;16.40;;;11.50;;
26750;SDS011;14345;48.272;25.926;2023-10-19T09:26:03;21.42;;;13.35;;
26750;SDS011;14345;48.272;25.926;2023-10-19T09:28:30;21.27;;;13.18;;
26750;SDS011;14345;48.272;25.926;2023-10-19T09:31:00;21.58;;;13.00;;
26750;SDS011;14345;48.272;25.926;2023-10-19T09:33:26;20.05;;;12.18;;
26750;SDS011;14345;48.272;25.926;2023-10-19T09:35:54;19.75;;;11.95;;
26750;SDS011;14345;48.272;25.926;2023-10-19T09:38:24;17.00;;;11.00;;
26750;SDS011;14345;48.272;25.926;2023-10-19T09:40:51;13.23;;;9.38;;
26750;SDS011;14345;48.272;25.926;2023-10-19T09:46:06;17.40;;;10.00;;
26750;SDS011;14345;48.272;25.926;2023-10-19T09:48:34;17.45;;;10.55;;
26750;SDS011;14345;48.272;25.926;2023-10-19T09:51:04;16.20;;;11.20;;
26750;SDS011;14345;48.272;25.926;2023-10-19T09:53:33;18.50;;;10.70;;
26750;SDS011;14345;48.272;25.926;2023-10-19T09:55:59;15.13;;;10.30;;
26750;SDS011;14345;48.272;25.926;2023-10-19T09:58:31;19.88;;;10.07;;
26750;SDS011;14345;48.272;25.926;2023-10-19T10:01:00;20.42;;;9.50;;
26750;SDS011;14345;48.272;25.926;2023-10-19T10:06:13;13.98;;;10.57;;
26750;SDS011;14345;48.272;25.926;2023-10-19T10:08:42;17.88;;;11.48;;
26750;SDS011;14345;48.272;25.926;2023-10-19T10:11:13;13.25;;;9.82;;
26750;SDS011;14345;48.272;25.926;2023-10-19T10:13:40;15.88;;;10.05;;
26750;SDS011;14345;48.272;25.926;2023-10-19T10:16:06;16.00;;;10.23;;
26750;SDS011;14345;48.272;25.926;2023-10-19T10:18:33;16.80;;;10.65;;
26750;SDS011;14345;48.272;25.926;2023-10-19T10:21:12;13.13;;;10.05;;
26750;SDS011;14345;48.272;25.926;2023-10-19T10:23:47;16.55;;;9.85;;
26750;SDS011;14345;48.272;25.926;2023-10-19T10:26:14;14.38;;;9.50;;
26750;SDS011;14345;48.272;25.926;2023-10-19T10:28:41;14.40;;;9.90;;
26750;SDS011;14345;48.272;25.926;2023-10-19T10:33:38;14.13;;;9.10;;
26750;SDS011;14345;48.272;25.926;2023-10-19T10:36:05;14.88;;;9.27;;
26750;SDS011;14345;48.272;25.926;2023-10-19T10:38:34;15.65;;;9.48;;
26750;SDS011;14345;48.272;25.926;2023-10-19T10:41:01;16.23;;;9.02;;
26750;SDS011;14345;48.272;25.926;2023-10-19T10:43:27;17.17;;;9.23;;
26750;SDS011;14345;48.272;25.926;2023-10-19T10:46:05;13.93;;;9.13;;
26750;SDS011;14345;48.272;25.926;2023-10-19T10:48:40;14.38;;;8.50;;
26750;SDS011;14345;48.272;25.926;2023-10-19T10:51:16;14.82;;;9.85;;
26750;SDS011;14345;48.272;25.926;2023-10-19T10:53:42;15.23;;;8.48;;
26750;SDS011;14345;48.272;25.926;2023-10-19T10:56:08;14.95;;;9.73;;
26750;SDS011;14345;48.272;25.926;2023-10-19T10:58:35;11.45;;;8.25;;
26750;SDS011;14345;48.272;25.926;2023-10-19T11:01:01;14.48;;;9.18;;
26750;SDS011;14345;48.272;25.926;2023-10-19T11:03:27;17.27;;;9.48;;
26750;SDS011;14345;48.272;25.926;2023-10-19T11:05:55;14.80;;;9.80;;
26750;SDS011;14345;48.272;25.926;2023-10-19T11:08:23;13.77;;;9.75;;
26750;SDS011;14345;48.272;25.926;2023-10-19T11:10:49;14.10;;;9.80;;
26750;SDS011;14345;48.272;25.926;2023-10-19T11:13:16;14.43;;;9.57;;
26750;SDS011;14345;48.272;25.926;2023-10-19T11:15:49;16.55;;;10.00;;
26750;SDS011;14345;48.272;25.926;2023-10-19T11:21:15;19.70;;;10.65;;
26750;SDS011;14345;48.272;25.926;2023-10-19T11:26:10;18.00;;;10.65;;
26750;SDS011;14345;48.272;25.926;2023-10-19T11:28:36;17.27;;;10.60;;
26750;SDS011;14345;48.272;25.926;2023-10-19T11:31:19;16.95;;;10.73;;
26750;SDS011;14345;48.272;25.926;2023-10-19T11:33:47;21.20;;;11.20;;
26750;SDS011;14345;48.272;25.926;2023-10-19T11:36:14;16.70;;;10.63;;
26750;SDS011;14345;48.272;25.926;2023-10-19T11:38:44;19.58;;;11.43;;
26750;SDS011;14345;48.272;25.926;2023-10-19T11:41:10;17.05;;;10.75;;
26750;SDS011;14345;48.272;25.926;2023-10-19T11:43:38;17.10;;;10.60;;
26750;SDS011;14345;48.272;25.926;2023-10-19T11:46:04;15.70;;;10.60;;
26750;SDS011;14345;48.272;25.926;2023-10-19T11:48:31;18.38;;;11.23;;
26750;SDS011;14345;48.272;25.926;2023-10-19T11:50:57;20.88;;;12.30;;
26750;SDS011;14345;48.272;25.926;2023-10-19T11:53:23;23.08;;;13.68;;
26750;SDS011;14345;48.272;25.926;2023-10-19T11:55:49;28.98;;;14.27;;
26750;SDS011;14345;48.272;25.926;2023-10-19T11:58:16;29.15;;;15.20;;
26750;SDS011;14345;48.272;25.926;2023-10-19T12:00:42;29.45;;;16.33;;
26750;SDS011;14345;48.272;25.926;2023-10-19T12:03:12;30.15;;;15.02;;
26750;SDS011;14345;48.272;25.926;2023-10-19T12:05:39;27.73;;;15.32;;
26750;SDS011;14345;48.272;25.926;2023-10-19T12:08:07;29.98;;;15.32;;
26750;SDS011;14345;48.272;25.926;2023-10-19T12:10:33;32.72;;;16.17;;
26750;SDS011;14345;48.272;25.926;2023-10-19T12:13:03;28.10;;;14.98;;
26750;SDS011;14345;48.272;25.926;2023-10-19T12:15:33;26.23;;;14.07;;
26750;SDS011;14345;48.272;25.926;2023-10-19T12:17:59;26.52;;;14.68;;
26750;SDS011;14345;48.272;25.926;2023-10-19T12:20:27;23.70;;;12.98;;
26750;SDS011;14345;48.272;25.926;2023-10-19T12:22:56;22.05;;;12.93;;
26750;SDS011;14345;48.272;25.926;2023-10-19T12:25:22;20.60;;;12.93;;
26750;SDS011;14345;48.272;25.926;2023-10-19T12:27:54;21.70;;;11.82;;
26750;SDS011;14345;48.272;25.926;2023-10-19T12:30:20;27.30;;;13.57;;
26750;SDS011;14345;48.272;25.926;2023-10-19T12:32:47;22.02;;;12.63;;
26750;SDS011;14345;48.272;25.926;2023-10-19T12:35:17;22.23;;;12.65;;
26750;SDS011;14345;48.272;25.926;2023-10-19T12:37:49;16.67;;;11.05;;
26750;SDS011;14345;48.272;25.926;2023-10-19T12:40:18;17.92;;;11.10;;
26750;SDS011;14345;48.272;25.926;2023-10-19T12:42:54;17.15;;;11.70;;
26750;SDS011;14345;48.272;25.926;2023-10-19T12:45:24;18.30;;;11.88;;
26750;SDS011;14345;48.272;25.926;2023-10-19T12:47:51;18.98;;;12.48;;
26750;SDS011;14345;48.272;25.926;2023-10-19T12:50:20;17.67;;;11.23;;
26750;SDS011;14345;48.272;25.926;2023-10-19T12:52:48;19.08;;;11.98;;
26750;SDS011;14345;48.272;25.926;2023-10-19T12:55:14;18.25;;;12.05;;
26750;SDS011;14345;48.272;25.926;2023-10-19T12:57:41;18.90;;;11.95;;
26750;SDS011;14345;48.272;25.926;2023-10-19T13:00:07;17.73;;;11.23;;
26750;SDS011;14345;48.272;25.926;2023-10-19T13:02:49;18.45;;;10.93;;
26750;SDS011;14345;48.272;25.926;2023-10-19T13:05:16;20.73;;;11.32;;
26750;SDS011;14345;48.272;25.926;2023-10-19T13:07:45;16.10;;;11.23;;
26750;SDS011;14345;48.272;25.926;2023-10-19T13:10:12;21.67;;;11.52;;
26750;SDS011;14345;48.272;25.926;2023-10-19T13:12:38;20.83;;;12.00;;
26750;SDS011;14345;48.272;25.926;2023-10-19T13:15:04;19.92;;;12.02;;
26750;SDS011;14345;48.272;25.926;2023-10-19T13:17:37;25.92;;;11.98;;
26750;SDS011;14345;48.272;25.926;2023-10-19T13:20:04;22.08;;;12.07;;
26750;SDS011;14345;48.272;25.926;2023-10-19T13:22:41;19.70;;;11.60;;
26750;SDS011;14345;48.272;25.926;2023-10-19T13:25:07;22.67;;;12.68;;
26750;SDS011;14345;48.272;25.926;2023-10-19T13:27:42;25.33;;;13.90;;
26750;SDS011;14345;48.272;25.926;2023-10-19T13:30:09;25.75;;;14.70;;
26750;SDS011;14345;48.272;25.926;2023-10-19T13:32:39;28.35;;;16.67;;
26750;SDS011;14345;48.272;25.926;2023-10-19T13:35:07;30.48;;;17.20;;
26750;SDS011;14345;48.272;25.926;2023-10-19T13:37:34;32.55;;;18.83;;
26750;SDS011;14345;48.272;25.926;2023-10-19T13:40:01;37.55;;;20.75;;
26750;SDS011;14345;48.272;25.926;2023-10-19T13:42:30;33.88;;;21.08;;
26750;SDS011;14345;48.272;25.926;2023-10-19T13:44:56;39.35;;;22.00;;
26750;SDS011;14345;48.272;25.926;2023-10-19T13:47:22;37.78;;;22.50;;
26750;SDS011;14345;48.272;25.926;2023-10-19T13:49:48;43.10;;;24.05;;
26750;SDS011;14345;48.272;25.926;2023-10-19T13:52:17;41.88;;;24.55;;
26750;SDS011;14345;48.272;25.926;2023-10-19T13:54:44;40.70;;;23.25;;
26750;SDS011;14345;48.272;25.926;2023-10-19T13:57:10;41.25;;;24.10;;
26750;SDS011;14345;48.272;25.926;2023-10-19T13:59:36;45.47;;;24.45;;
26750;SDS011;14345;48.272;25.926;2023-10-19T14:02:02;38.10;;;23.60;;
26750;SDS011;14345;48.272;25.926;2023-10-19T14:04:28;42.90;;;25.13;;
26750;SDS011;14345;48.272;25.926;2023-10-19T14:06:54;37.10;;;23.50;;
26750;SDS011;14345;48.272;25.926;2023-10-19T14:09:20;42.92;;;25.23;;
26750;SDS011;14345;48.272;25.926;2023-10-19T14:11:48;39.65;;;23.27;;
26750;SDS011;14345;48.272;25.926;2023-10-19T14:14:14;39.00;;;24.17;;
26750;SDS011;14345;48.272;25.926;2023-10-19T14:16:40;41.15;;;23.70;;
26750;SDS011;14345;48.272;25.926;2023-10-19T14:19:07;41.45;;;24.55;;
26750;SDS011;14345;48.272;25.926;2023-10-19T14:21:33;40.35;;;23.08;;
26750;SDS011;14345;48.272;25.926;2023-10-19T14:24:02;37.20;;;22.25;;
26750;SDS011;14345;48.272;25.926;2023-10-19T14:26:29;42.55;;;23.73;;
26750;SDS011;14345;48.272;25.926;2023-10-19T14:28:55;43.13;;;23.50;;
26750;SDS011;14345;48.272;25.926;2023-10-19T14:31:21;39.78;;;23.98;;